createdAt,value
2018-09-25T00:01:11.834Z,8.25
2018-09-25T00:03:47.720Z,8.16
2018-09-25T00:06:23.520Z,8.10
2018-09-25T00:08:59.504Z,8.03
2018-09-25T00:11:35.475Z,8.00
2018-09-25T00:14:11.243Z,7.96
2018-09-25T00:16:46.887Z,7.97
2018-09-25T00:19:22.791Z,7.97
2018-09-25T00:21:58.558Z,7.95
2018-09-25T00:24:34.387Z,7.95
2018-09-25T00:27:10.214Z,7.97
2018-09-25T00:29:45.843Z,7.97
2018-09-25T00:32:52.621Z,7.97
2018-09-25T00:35:28.450Z,7.96
2018-09-25T00:38:04.193Z,7.94
2018-09-25T00:40:40.187Z,7.94
2018-09-25T00:43:16.124Z,7.95
2018-09-25T00:45:51.941Z,7.94
2018-09-25T00:48:28.732Z,7.95
2018-09-25T00:51:04.587Z,7.95
2018-09-25T00:53:40.459Z,7.96
2018-09-25T00:56:16.234Z,7.96
2018-09-25T00:58:52.123Z,7.95
2018-09-25T01:01:27.822Z,7.92
2018-09-25T01:04:03.734Z,7.90
2018-09-25T01:06:39.506Z,7.91
2018-09-25T01:09:15.292Z,7.91
2018-09-25T01:11:51.013Z,7.93
2018-09-25T01:14:26.806Z,7.92
2018-09-25T01:17:02.774Z,7.91
2018-09-25T01:19:38.680Z,7.90
2018-09-25T01:22:14.496Z,7.89
2018-09-25T01:24:50.389Z,7.87
2018-09-25T01:27:26.160Z,7.82
2018-09-25T01:30:01.903Z,7.80
2018-09-25T01:32:37.661Z,7.73
2018-09-25T01:35:13.581Z,7.69
2018-09-25T01:37:49.383Z,7.64
2018-09-25T01:40:25.334Z,7.63
2018-09-25T01:43:01.203Z,7.62
2018-09-25T01:45:36.994Z,7.59
2018-09-25T01:48:13.017Z,7.57
2018-09-25T01:50:48.887Z,7.54
2018-09-25T01:53:24.641Z,7.53
2018-09-25T01:56:00.564Z,7.53
2018-09-25T01:58:36.331Z,7.53
2018-09-25T02:01:12.133Z,7.52
2018-09-25T02:03:48.048Z,7.53
2018-09-25T02:06:23.954Z,7.48
2018-09-25T02:08:59.916Z,7.46
2018-09-25T02:11:35.769Z,7.43
2018-09-25T02:14:11.710Z,7.47
2018-09-25T02:16:47.501Z,7.42
2018-09-25T02:19:23.494Z,7.40
2018-09-25T02:21:59.266Z,7.39
2018-09-25T02:24:35.039Z,7.37
2018-09-25T02:27:10.779Z,7.38
2018-09-25T02:29:46.488Z,7.40
2018-09-25T02:32:22.280Z,7.40
2018-09-25T02:34:58.139Z,7.40
2018-09-25T02:37:34.020Z,7.39
2018-09-25T02:40:09.853Z,7.38
2018-09-25T02:42:45.679Z,7.39
2018-09-25T02:45:21.601Z,7.41
2018-09-25T02:47:57.404Z,7.44
2018-09-25T02:50:33.292Z,7.47
2018-09-25T02:53:09.180Z,7.48
2018-09-25T02:55:44.988Z,7.50
2018-09-25T02:58:20.724Z,7.50
2018-09-25T03:00:56.585Z,7.49
2018-09-25T03:03:32.364Z,7.50
2018-09-25T03:06:08.709Z,7.50
2018-09-25T03:08:44.412Z,7.47
2018-09-25T03:11:20.308Z,7.45
2018-09-25T03:13:56.300Z,7.43
2018-09-25T03:16:32.057Z,7.40
2018-09-25T03:19:07.907Z,7.37
2018-09-25T03:21:43.643Z,7.35
2018-09-25T03:24:19.415Z,7.32
2018-09-25T03:26:55.098Z,7.26
2018-09-25T03:29:30.842Z,7.22
2018-09-25T03:32:06.737Z,7.17
2018-09-25T03:34:42.633Z,7.16
2018-09-25T03:37:18.342Z,7.11
2018-09-25T03:39:54.214Z,7.07
2018-09-25T03:42:30.044Z,7.03
2018-09-25T03:45:05.914Z,6.99
2018-09-25T03:47:41.783Z,6.96
2018-09-25T03:50:17.782Z,6.93
2018-09-25T03:52:53.728Z,6.89
2018-09-25T03:55:29.512Z,6.86
2018-09-25T03:58:05.258Z,6.81
2018-09-25T04:00:40.923Z,6.80
2018-09-25T04:03:16.770Z,6.76
2018-09-25T04:05:52.628Z,6.73
2018-09-25T04:08:28.525Z,6.72
2018-09-25T04:11:04.112Z,6.69
2018-09-25T04:13:39.984Z,6.65
2018-09-25T04:16:15.992Z,6.62
2018-09-25T04:18:51.768Z,6.60
2018-09-25T04:21:27.567Z,6.60
2018-09-25T04:24:03.523Z,6.58
2018-09-25T04:26:39.531Z,6.57
2018-09-25T04:29:15.341Z,6.55
2018-09-25T04:31:51.139Z,6.56
2018-09-25T04:34:26.856Z,6.52
2018-09-25T04:37:02.609Z,6.46
2018-09-25T04:39:38.333Z,6.39
2018-09-25T04:42:14.328Z,6.35
2018-09-25T04:44:50.075Z,6.31
2018-09-25T04:47:25.956Z,6.26
2018-09-25T04:50:01.879Z,6.21
2018-09-25T04:52:37.683Z,6.17
2018-09-25T04:55:13.578Z,6.12
2018-09-25T04:57:49.440Z,6.08
2018-09-25T05:00:25.264Z,6.01
2018-09-25T05:03:02.051Z,5.98
2018-09-25T05:05:37.900Z,5.94
2018-09-25T05:08:13.684Z,5.92
2018-09-25T05:10:49.531Z,5.94
2018-09-25T05:13:25.424Z,5.96
2018-09-25T05:16:01.232Z,5.95
2018-09-25T05:18:36.965Z,5.92
2018-09-25T05:21:12.870Z,5.92
2018-09-25T05:23:48.771Z,5.90
2018-09-25T05:26:24.499Z,5.92
2018-09-25T05:29:00.369Z,5.93
2018-09-25T05:31:36.226Z,5.92
2018-09-25T05:34:11.959Z,5.92
2018-09-25T05:36:47.898Z,5.95
2018-09-25T05:39:23.670Z,5.94
2018-09-25T05:41:59.575Z,5.91
2018-09-25T05:44:35.309Z,5.95
2018-09-25T05:47:11.407Z,5.96
2018-09-25T05:49:47.031Z,5.99
2018-09-25T05:52:22.883Z,6.06
2018-09-25T05:54:58.636Z,6.13
2018-09-25T05:57:34.453Z,6.26
2018-09-25T06:00:10.577Z,6.29
2018-09-25T06:02:46.305Z,6.34
2018-09-25T06:05:22.305Z,6.43
2018-09-25T06:07:58.817Z,6.55
2018-09-25T06:10:34.591Z,6.68
2018-09-25T06:13:10.482Z,6.77
2018-09-25T06:15:46.392Z,6.93
2018-09-25T06:18:22.683Z,7.03
2018-09-25T06:20:58.461Z,7.18
2018-09-25T06:23:34.146Z,7.35
2018-09-25T06:26:10.091Z,7.57
2018-09-25T06:28:45.876Z,7.75
2018-09-25T06:31:21.714Z,7.86
2018-09-25T06:33:57.454Z,8.05
2018-09-25T06:36:33.127Z,8.25
2018-09-25T06:39:09.018Z,8.57
2018-09-25T06:41:44.884Z,8.84
2018-09-25T06:44:20.552Z,9.08
2018-09-25T06:46:56.338Z,9.43
2018-09-25T06:49:32.135Z,9.78
2018-09-25T06:52:08.022Z,10.01
2018-09-25T06:54:44.004Z,10.37
2018-09-25T06:57:19.859Z,10.75
2018-09-25T06:59:55.796Z,11.13
2018-09-25T07:02:31.720Z,11.48
2018-09-25T07:05:07.495Z,11.92
2018-09-25T07:07:43.300Z,12.30
2018-09-25T07:10:19.111Z,12.68
2018-09-25T07:12:54.955Z,13.05
2018-09-25T07:15:30.719Z,13.52
2018-09-25T07:18:06.739Z,13.98
2018-09-25T07:20:42.493Z,14.32
2018-09-25T07:23:18.183Z,14.42
2018-09-25T07:25:54.054Z,14.88
2018-09-25T07:28:29.751Z,15.23
2018-09-25T07:31:05.579Z,15.54
2018-09-25T07:33:41.401Z,15.68
2018-09-25T07:36:17.115Z,16.06
2018-09-25T07:38:52.963Z,16.23
2018-09-25T07:41:28.708Z,16.58
2018-09-25T07:44:04.475Z,17.00
2018-09-25T07:46:40.329Z,17.46
2018-09-25T07:49:16.131Z,17.86
2018-09-25T07:51:52.044Z,18.17
2018-09-25T07:54:27.976Z,18.30
2018-09-25T07:57:03.879Z,18.60
2018-09-25T07:59:39.910Z,18.98
2018-09-25T08:02:15.570Z,19.17
2018-09-25T08:04:51.401Z,19.25
2018-09-25T08:07:27.243Z,19.25
2018-09-25T08:10:03.129Z,19.52
2018-09-25T08:12:39.025Z,19.89
2018-09-25T08:15:14.912Z,20.04
2018-09-25T08:17:50.689Z,20.44
2018-09-25T08:20:26.655Z,20.78
2018-09-25T08:23:02.520Z,21.06
2018-09-25T08:25:38.887Z,21.26
2018-09-25T08:28:14.750Z,21.39
2018-09-25T08:30:50.452Z,21.69
2018-09-25T08:33:26.365Z,21.84
2018-09-25T08:36:02.376Z,21.69
2018-09-25T08:38:38.060Z,21.80
2018-09-25T08:41:13.928Z,21.86
2018-09-25T08:43:49.652Z,22.10
2018-09-25T08:46:25.412Z,21.96
2018-09-25T08:49:01.235Z,21.96
2018-09-25T08:51:37.146Z,22.18
2018-09-25T08:54:12.942Z,22.62
2018-09-25T08:56:48.750Z,23.06
2018-09-25T08:59:24.471Z,23.20
2018-09-25T09:02:00.370Z,23.42
2018-09-25T09:04:36.113Z,23.55
2018-09-25T09:07:11.982Z,23.67
2018-09-25T09:09:47.927Z,23.73
2018-09-25T09:12:23.703Z,23.60
2018-09-25T09:14:59.594Z,23.45
2018-09-25T09:17:35.403Z,23.47
2018-09-25T09:20:11.154Z,23.75
2018-09-25T09:22:47.033Z,23.95
2018-09-25T09:25:22.835Z,24.20
2018-09-25T09:27:58.656Z,24.32
2018-09-25T09:30:34.580Z,24.41
2018-09-25T09:33:10.520Z,24.65
2018-09-25T09:35:46.344Z,24.57
2018-09-25T09:38:22.044Z,24.54
2018-09-25T09:40:57.826Z,24.48
2018-09-25T09:43:33.763Z,24.59
2018-09-25T09:46:09.623Z,24.82
2018-09-25T09:48:45.396Z,24.09
2018-09-25T09:51:21.331Z,23.77
2018-09-25T09:53:57.039Z,23.88
2018-09-25T09:56:33.066Z,24.28
2018-09-25T09:59:08.879Z,24.90
2018-09-25T10:01:44.788Z,24.87
2018-09-25T10:04:20.659Z,25.06
2018-09-25T10:06:56.633Z,25.46
2018-09-25T10:09:32.457Z,25.04
2018-09-25T10:12:08.183Z,24.53
2018-09-25T10:14:44.080Z,24.11
2018-09-25T10:17:20.076Z,23.53
2018-09-25T10:19:56.078Z,23.98
2018-09-25T10:22:31.871Z,24.15
2018-09-25T10:25:07.638Z,24.09
2018-09-25T10:27:43.570Z,24.18
2018-09-25T10:30:19.303Z,24.76
2018-09-25T10:32:55.236Z,25.17
2018-09-25T10:35:31.036Z,25.41
2018-09-25T10:38:06.863Z,25.70
2018-09-25T10:40:42.643Z,25.73
2018-09-25T10:43:18.565Z,25.09
2018-09-25T10:45:54.482Z,24.56
2018-09-25T10:48:30.251Z,24.43
2018-09-25T10:51:06.033Z,24.16
2018-09-25T10:53:41.901Z,24.02
2018-09-25T10:56:17.854Z,23.39
2018-09-25T10:58:53.530Z,23.10
2018-09-25T11:01:29.382Z,22.57
2018-09-25T11:04:05.289Z,22.04
2018-09-25T11:06:41.215Z,21.54
2018-09-25T11:09:17.121Z,21.15
2018-09-25T11:11:52.951Z,20.83
2018-09-25T11:14:28.824Z,20.60
2018-09-25T11:17:04.784Z,20.20
2018-09-25T11:19:40.609Z,20.01
2018-09-25T11:22:16.248Z,19.89
2018-09-25T11:24:51.936Z,19.71
2018-09-25T11:27:27.790Z,19.69
2018-09-25T11:30:03.561Z,19.65
2018-09-25T11:32:39.405Z,19.67
2018-09-25T11:35:15.489Z,19.79
2018-09-25T11:37:51.301Z,20.53
2018-09-25T11:40:27.096Z,21.44
2018-09-25T11:43:02.834Z,22.36
2018-09-25T11:45:38.719Z,23.04
2018-09-25T11:48:14.850Z,23.12
2018-09-25T11:50:50.590Z,22.91
2018-09-25T11:53:26.533Z,22.71
2018-09-25T11:56:02.395Z,22.33
2018-09-25T11:58:38.245Z,21.97
2018-09-25T12:01:14.118Z,21.61
2018-09-25T12:03:50.089Z,21.44
2018-09-25T12:06:25.967Z,21.33
2018-09-25T12:09:01.645Z,21.17
2018-09-25T12:11:37.438Z,21.03
2018-09-25T12:14:13.323Z,20.95
2018-09-25T12:16:49.037Z,20.80
2018-09-25T12:19:24.759Z,20.72
2018-09-25T12:22:00.700Z,20.54
2018-09-25T12:24:36.367Z,20.52
2018-09-25T12:27:12.552Z,20.38
2018-09-25T12:29:48.448Z,20.47
2018-09-25T12:32:24.343Z,20.39
2018-09-25T12:34:59.971Z,20.37
2018-09-25T12:37:35.790Z,20.33
2018-09-25T12:40:11.518Z,20.24
2018-09-25T12:42:47.442Z,20.14
2018-09-25T12:45:23.341Z,19.99
2018-09-25T12:47:59.208Z,19.84
2018-09-25T12:50:35.171Z,19.68
2018-09-25T12:53:10.907Z,19.62
2018-09-25T12:55:46.688Z,19.64
2018-09-25T12:58:22.624Z,19.57
2018-09-25T13:00:58.386Z,19.46
2018-09-25T13:03:34.164Z,19.41
2018-09-25T13:06:10.104Z,19.37
2018-09-25T13:08:46.091Z,19.31
2018-09-25T13:11:21.928Z,19.32
2018-09-25T13:13:57.891Z,19.24
2018-09-25T13:16:33.598Z,19.19
2018-09-25T13:19:09.383Z,19.12
2018-09-25T13:21:45.209Z,19.04
2018-09-25T13:24:21.008Z,19.00
2018-09-25T13:26:57.058Z,18.97
2018-09-25T13:29:32.796Z,18.90
2018-09-25T13:32:08.651Z,18.86
2018-09-25T13:34:44.451Z,18.82
2018-09-25T13:37:20.158Z,18.75
2018-09-25T13:39:56.078Z,18.65
2018-09-25T13:42:31.955Z,18.59
2018-09-25T13:45:07.751Z,18.57
2018-09-25T13:47:43.633Z,18.39
2018-09-25T13:50:19.374Z,18.33
2018-09-25T13:52:55.375Z,18.33
2018-09-25T13:55:31.200Z,18.28
2018-09-25T13:58:07.145Z,18.25
2018-09-25T14:00:43.017Z,18.24
2018-09-25T14:03:18.895Z,18.21
2018-09-25T14:05:54.675Z,18.19
2018-09-25T14:08:30.441Z,18.21
2018-09-25T14:11:06.243Z,18.17
2018-09-25T14:13:42.081Z,18.14
2018-09-25T14:16:17.835Z,18.11
2018-09-25T14:18:53.649Z,18.16
2018-09-25T14:21:29.472Z,18.14
2018-09-25T14:24:05.316Z,18.21
2018-09-25T14:26:41.282Z,18.69
2018-09-25T14:29:17.123Z,19.37
2018-09-25T14:31:52.954Z,19.65
2018-09-25T14:34:28.949Z,19.61
2018-09-25T14:37:04.864Z,19.46
2018-09-25T14:39:40.583Z,19.29
2018-09-25T14:42:16.370Z,19.10
2018-09-25T14:44:52.266Z,18.94
2018-09-25T14:47:28.185Z,18.84
2018-09-25T14:50:04.053Z,18.77
2018-09-25T14:52:39.895Z,18.74
2018-09-25T14:55:15.798Z,19.04
2018-09-25T14:57:51.719Z,19.67
2018-09-25T15:00:27.683Z,20.31
2018-09-25T15:03:03.499Z,20.84
2018-09-25T15:05:39.535Z,21.35
2018-09-25T15:08:15.467Z,20.89
2018-09-25T15:10:51.315Z,20.79
2018-09-25T15:13:27.123Z,20.36
2018-09-25T15:16:02.951Z,19.52
2018-09-25T15:18:38.906Z,19.14
2018-09-25T15:21:15.346Z,19.01
2018-09-25T15:23:51.284Z,19.04
2018-09-25T15:26:27.133Z,18.83
2018-09-25T15:29:03.008Z,18.59
2018-09-25T15:31:38.919Z,18.35
2018-09-25T15:34:14.648Z,18.34
2018-09-25T15:36:50.487Z,18.57
2018-09-25T15:39:26.323Z,18.67
2018-09-25T15:42:02.265Z,18.56
2018-09-25T15:44:38.160Z,18.38
2018-09-25T15:47:13.997Z,18.27
2018-09-25T15:49:49.858Z,18.41
2018-09-25T15:52:25.683Z,18.60
2018-09-25T15:55:01.376Z,18.72
2018-09-25T15:57:37.332Z,18.43
2018-09-25T16:00:13.674Z,18.31
2018-09-25T16:02:49.401Z,18.31
2018-09-25T16:05:25.312Z,18.15
2018-09-25T16:08:01.203Z,17.68
2018-09-25T16:10:37.055Z,17.62
2018-09-25T16:13:12.853Z,17.59
2018-09-25T16:15:48.717Z,17.49
2018-09-25T16:18:24.579Z,17.42
2018-09-25T16:21:00.421Z,17.16
2018-09-25T16:23:36.284Z,17.22
2018-09-25T16:26:12.419Z,17.19
2018-09-25T16:28:48.320Z,17.15
2018-09-25T16:31:24.329Z,17.13
2018-09-25T16:34:00.215Z,17.11
2018-09-25T16:36:36.184Z,17.06
2018-09-25T16:39:15.383Z,16.93
2018-09-25T16:41:51.242Z,16.74
2018-09-25T16:44:27.148Z,16.73
2018-09-25T16:47:03.106Z,16.71
2018-09-25T16:49:38.830Z,16.60
2018-09-25T16:52:14.776Z,16.39
2018-09-25T16:54:50.671Z,16.20
2018-09-25T16:57:26.562Z,15.99
2018-09-25T17:00:02.529Z,15.85
2018-09-25T17:02:38.322Z,15.71
2018-09-25T17:05:14.347Z,15.60
2018-09-25T17:07:50.276Z,15.47
2018-09-25T17:10:26.391Z,15.31
2018-09-25T17:13:02.248Z,15.17
2018-09-25T17:15:38.295Z,15.06
2018-09-25T17:18:14.230Z,14.90
2018-09-25T17:20:50.335Z,14.75
2018-09-25T17:23:26.234Z,14.59
2018-09-25T17:26:02.169Z,14.42
2018-09-25T17:28:38.019Z,14.28
2018-09-25T17:31:13.919Z,14.15
2018-09-25T17:33:49.949Z,14.04
2018-09-25T17:36:25.786Z,13.91
2018-09-25T17:39:01.538Z,13.77
2018-09-25T17:41:37.645Z,13.60
2018-09-25T17:44:13.607Z,13.46
2018-09-25T17:46:49.414Z,13.36
2018-09-25T17:49:25.498Z,13.30
2018-09-25T17:52:01.293Z,13.15
2018-09-25T17:54:37.160Z,13.06
2018-09-25T17:57:13.080Z,12.93
2018-09-25T17:59:48.885Z,12.81
2018-09-25T18:02:25.054Z,12.71
2018-09-25T18:05:01.000Z,12.65
2018-09-25T18:07:36.923Z,12.53
2018-09-25T18:10:12.824Z,12.44
2018-09-25T18:12:48.976Z,12.37
2018-09-25T18:15:25.056Z,12.30
2018-09-25T18:18:00.880Z,12.28
2018-09-25T18:20:36.834Z,12.18
2018-09-25T18:23:12.897Z,12.09
2018-09-25T18:25:48.792Z,11.98
2018-09-25T18:28:24.616Z,11.91
2018-09-25T18:31:00.651Z,11.85
2018-09-25T18:33:36.696Z,11.78
2018-09-25T18:36:12.987Z,11.74
2018-09-25T18:38:55.725Z,11.68
2018-09-25T18:41:31.429Z,11.66
2018-09-25T18:44:07.241Z,11.54
2018-09-25T18:46:43.075Z,11.50
2018-09-25T18:49:18.727Z,11.45
2018-09-25T18:51:54.637Z,11.39
2018-09-25T18:54:30.626Z,11.38
2018-09-25T18:57:06.536Z,11.32
2018-09-25T18:59:42.437Z,11.33
2018-09-25T19:02:18.241Z,11.31
2018-09-25T19:04:54.149Z,11.30
2018-09-25T19:07:29.891Z,11.26
2018-09-25T19:10:05.823Z,11.19
2018-09-25T19:12:41.793Z,11.13
2018-09-25T19:15:17.710Z,11.14
2018-09-25T19:17:53.859Z,11.13
2018-09-25T19:20:29.695Z,11.08
2018-09-25T19:23:05.574Z,11.01
2018-09-25T19:25:41.300Z,11.00
2018-09-25T19:28:17.309Z,11.06
2018-09-25T19:30:53.321Z,11.05
2018-09-25T19:33:29.307Z,11.02
2018-09-25T19:36:05.097Z,11.01
2018-09-25T19:38:41.055Z,11.01
2018-09-25T19:41:16.912Z,10.93
2018-09-25T19:43:52.711Z,10.92
2018-09-25T19:46:28.463Z,10.86
2018-09-25T19:49:04.406Z,10.78
2018-09-25T19:51:40.237Z,10.77
2018-09-25T19:54:16.260Z,10.89
2018-09-25T19:56:52.314Z,10.98
2018-09-25T19:59:28.043Z,11.03
2018-09-25T20:02:04.071Z,10.95
2018-09-25T20:04:39.939Z,10.85
2018-09-25T20:07:15.705Z,10.79
2018-09-25T20:09:51.677Z,10.83
2018-09-25T20:12:27.509Z,10.67
2018-09-25T20:15:03.379Z,10.61
2018-09-25T20:17:39.113Z,10.56
2018-09-25T20:20:15.044Z,10.50
2018-09-25T20:22:51.000Z,10.45
2018-09-25T20:25:26.929Z,10.44
2018-09-25T20:28:02.849Z,10.41
2018-09-25T20:30:38.732Z,10.32
2018-09-25T20:33:14.670Z,10.28
2018-09-25T20:35:50.432Z,10.21
2018-09-25T20:38:26.131Z,10.16
2018-09-25T20:41:02.021Z,10.08
2018-09-25T20:43:37.929Z,10.04
2018-09-25T20:46:13.695Z,9.99
2018-09-25T20:48:49.683Z,10.00
2018-09-25T20:51:25.548Z,10.03
2018-09-25T20:54:01.355Z,10.00
2018-09-25T20:56:37.241Z,10.05
2018-09-25T20:59:13.020Z,9.93
2018-09-25T21:01:48.855Z,9.85
2018-09-25T21:04:24.929Z,9.89
2018-09-25T21:07:00.767Z,9.87
2018-09-25T21:09:36.547Z,9.86
2018-09-25T21:12:12.437Z,9.90
2018-09-25T21:14:48.330Z,9.86
2018-09-25T21:17:24.287Z,9.90
2018-09-25T21:20:00.229Z,9.89
2018-09-25T21:22:35.974Z,9.89
2018-09-25T21:25:11.922Z,9.85
2018-09-25T21:27:47.840Z,9.80
2018-09-25T21:30:23.805Z,9.77
2018-09-25T21:32:59.609Z,9.69
2018-09-25T21:35:35.587Z,9.60
2018-09-25T21:38:11.300Z,9.57
2018-09-25T21:40:47.368Z,9.51
2018-09-25T21:43:23.365Z,9.54
2018-09-25T21:45:59.332Z,9.44
2018-09-25T21:48:35.178Z,9.42
2018-09-25T21:51:11.100Z,9.36
2018-09-25T21:53:46.903Z,9.37
2018-09-25T21:56:22.662Z,9.34
2018-09-25T21:58:58.357Z,9.35
2018-09-25T22:01:34.245Z,9.34
2018-09-25T22:04:10.181Z,9.34
2018-09-25T22:06:45.937Z,9.26
2018-09-25T22:09:21.924Z,9.22
2018-09-25T22:11:57.676Z,9.19
2018-09-25T22:14:33.504Z,9.16
2018-09-25T22:17:09.326Z,9.13
2018-09-25T22:19:45.115Z,9.13
2018-09-25T22:22:20.752Z,9.11
2018-09-25T22:24:56.778Z,9.09
2018-09-25T22:27:32.634Z,9.10
2018-09-25T22:30:08.399Z,9.03
2018-09-25T22:32:44.317Z,9.14
2018-09-25T22:35:20.304Z,9.13
2018-09-25T22:37:56.011Z,9.13
2018-09-25T22:40:32.022Z,9.20
2018-09-25T22:43:07.721Z,9.12
2018-09-25T22:45:43.871Z,9.07
2018-09-25T22:48:19.634Z,9.09
2018-09-25T22:50:55.258Z,9.11
2018-09-25T22:53:31.238Z,9.18
2018-09-25T22:56:06.965Z,9.12
2018-09-25T22:58:42.789Z,9.06
2018-09-25T23:01:18.667Z,8.94
2018-09-25T23:03:54.624Z,8.92
2018-09-25T23:06:30.402Z,8.90
2018-09-25T23:09:06.181Z,8.85
2018-09-25T23:11:42.140Z,8.86
2018-09-25T23:14:18.026Z,8.84
2018-09-25T23:16:53.990Z,8.81
2018-09-25T23:19:29.792Z,8.79
2018-09-25T23:22:05.693Z,8.79
2018-09-25T23:24:41.386Z,8.81
2018-09-25T23:27:17.200Z,8.85
2018-09-25T23:29:53.025Z,8.80
2018-09-25T23:32:28.771Z,8.84
2018-09-25T23:35:04.587Z,8.79
2018-09-25T23:37:40.399Z,8.75
2018-09-25T23:40:17.323Z,8.75
2018-09-25T23:42:51.972Z,8.74
2018-09-25T23:45:29.739Z,8.68
2018-09-25T23:48:05.564Z,8.69
2018-09-25T23:52:49.235Z,8.66
2018-09-25T23:55:26.590Z,8.66
2018-09-25T23:58:05.402Z,8.72
